sensor_id;sensor_type;location;lat;lon;timestamp;P1;durP1;ratioP1;P2;durP2;ratioP2
74821;SDS011;63353;48.702;8.884;2022-10-16T00:00:32;5.23;;;3.27;;
74821;SDS011;63353;48.702;8.884;2022-10-16T00:02:59;5.13;;;2.90;;
74821;SDS011;63353;48.702;8.884;2022-10-16T00:05:26;3.33;;;2.90;;
74821;SDS011;63353;48.702;8.884;2022-10-16T00:07:51;3.07;;;2.80;;
74821;SDS011;63353;48.702;8.884;2022-10-16T00:10:17;2.90;;;2.70;;
74821;SDS011;63353;48.702;8.884;2022-10-16T00:12:43;5.70;;;4.20;;
74821;SDS011;63353;48.702;8.884;2022-10-16T00:15:08;5.37;;;3.30;;
74821;SDS011;63353;48.702;8.884;2022-10-16T00:17:34;2.70;;;2.43;;
74821;SDS011;63353;48.702;8.884;2022-10-16T00:20:00;2.97;;;2.70;;
74821;SDS011;63353;48.702;8.884;2022-10-16T00:22:25;2.93;;;2.73;;
74821;SDS011;63353;48.702;8.884;2022-10-16T00:24:51;2.77;;;2.57;;
74821;SDS011;63353;48.702;8.884;2022-10-16T00:27:17;5.00;;;3.17;;
74821;SDS011;63353;48.702;8.884;2022-10-16T00:29:43;3.63;;;2.40;;
74821;SDS011;63353;48.702;8.884;2022-10-16T00:32:08;3.07;;;2.80;;
74821;SDS011;63353;48.702;8.884;2022-10-16T00:34:34;2.80;;;2.60;;
74821;SDS011;63353;48.702;8.884;2022-10-16T00:37:00;3.10;;;2.80;;
74821;SDS011;63353;48.702;8.884;2022-10-16T00:39:26;3.23;;;2.90;;
74821;SDS011;63353;48.702;8.884;2022-10-16T00:41:51;2.83;;;2.63;;
74821;SDS011;63353;48.702;8.884;2022-10-16T00:47:11;3.47;;;2.90;;
74821;SDS011;63353;48.702;8.884;2022-10-16T00:49:42;3.03;;;2.83;;
74821;SDS011;63353;48.702;8.884;2022-10-16T00:52:08;3.07;;;2.67;;
74821;SDS011;63353;48.702;8.884;2022-10-16T00:54:35;5.07;;;2.90;;
74821;SDS011;63353;48.702;8.884;2022-10-16T00:57:02;4.37;;;2.90;;
74821;SDS011;63353;48.702;8.884;2022-10-16T00:59:32;3.10;;;2.80;;
74821;SDS011;63353;48.702;8.884;2022-10-16T01:02:00;3.17;;;2.87;;
74821;SDS011;63353;48.702;8.884;2022-10-16T01:04:26;3.13;;;2.83;;
74821;SDS011;63353;48.702;8.884;2022-10-16T01:14:53;3.17;;;2.97;;
74821;SDS011;63353;48.702;8.884;2022-10-16T01:22:29;4.07;;;3.10;;
74821;SDS011;63353;48.702;8.884;2022-10-16T01:25:05;3.67;;;2.57;;
74821;SDS011;63353;48.702;8.884;2022-10-16T01:27:38;3.17;;;2.90;;
74821;SDS011;63353;48.702;8.884;2022-10-16T01:33:14;3.37;;;3.10;;
74821;SDS011;63353;48.702;8.884;2022-10-16T01:35:36;3.07;;;2.80;;
74821;SDS011;63353;48.702;8.884;2022-10-16T01:38:06;5.23;;;2.97;;
74821;SDS011;63353;48.702;8.884;2022-10-16T01:40:37;3.50;;;2.70;;
74821;SDS011;63353;48.702;8.884;2022-10-16T01:43:10;3.83;;;2.90;;
74821;SDS011;63353;48.702;8.884;2022-10-16T01:45:40;3.80;;;3.13;;
74821;SDS011;63353;48.702;8.884;2022-10-16T01:48:09;3.00;;;2.70;;
74821;SDS011;63353;48.702;8.884;2022-10-16T01:50:38;2.60;;;2.40;;
74821;SDS011;63353;48.702;8.884;2022-10-16T01:53:07;3.10;;;2.80;;
74821;SDS011;63353;48.702;8.884;2022-10-16T01:55:38;3.10;;;2.80;;
74821;SDS011;63353;48.702;8.884;2022-10-16T01:58:09;3.00;;;2.80;;
74821;SDS011;63353;48.702;8.884;2022-10-16T02:00:37;5.00;;;2.70;;
74821;SDS011;63353;48.702;8.884;2022-10-16T02:03:06;2.93;;;2.70;;
74821;SDS011;63353;48.702;8.884;2022-10-16T02:05:36;2.90;;;2.70;;
74821;SDS011;63353;48.702;8.884;2022-10-16T02:08:19;3.53;;;2.60;;
74821;SDS011;63353;48.702;8.884;2022-10-16T02:10:47;5.33;;;2.70;;
74821;SDS011;63353;48.702;8.884;2022-10-16T02:13:15;4.13;;;2.97;;
74821;SDS011;63353;48.702;8.884;2022-10-16T02:15:51;4.70;;;2.87;;
74821;SDS011;63353;48.702;8.884;2022-10-16T02:18:17;3.67;;;2.70;;
74821;SDS011;63353;48.702;8.884;2022-10-16T02:20:45;4.07;;;2.80;;
74821;SDS011;63353;48.702;8.884;2022-10-16T02:23:19;5.73;;;2.83;;
74821;SDS011;63353;48.702;8.884;2022-10-16T02:26:07;3.00;;;2.60;;
74821;SDS011;63353;48.702;8.884;2022-10-16T02:28:39;2.70;;;2.50;;
74821;SDS011;63353;48.702;8.884;2022-10-16T02:31:14;2.97;;;2.63;;
74821;SDS011;63353;48.702;8.884;2022-10-16T02:33:46;3.77;;;2.80;;
74821;SDS011;63353;48.702;8.884;2022-10-16T02:36:12;2.97;;;2.70;;
74821;SDS011;63353;48.702;8.884;2022-10-16T02:38:38;4.67;;;2.77;;
74821;SDS011;63353;48.702;8.884;2022-10-16T02:41:05;2.87;;;2.67;;
74821;SDS011;63353;48.702;8.884;2022-10-16T02:43:31;4.43;;;2.60;;
74821;SDS011;63353;48.702;8.884;2022-10-16T02:45:58;6.20;;;3.00;;
74821;SDS011;63353;48.702;8.884;2022-10-16T02:48:24;3.00;;;2.80;;
74821;SDS011;63353;48.702;8.884;2022-10-16T02:50:50;3.77;;;2.80;;
74821;SDS011;63353;48.702;8.884;2022-10-16T02:53:16;3.20;;;2.90;;
74821;SDS011;63353;48.702;8.884;2022-10-16T02:55:41;4.33;;;2.60;;
74821;SDS011;63353;48.702;8.884;2022-10-16T02:58:07;3.77;;;2.80;;
74821;SDS011;63353;48.702;8.884;2022-10-16T03:00:33;3.10;;;2.80;;
74821;SDS011;63353;48.702;8.884;2022-10-16T03:02:58;2.93;;;2.70;;
74821;SDS011;63353;48.702;8.884;2022-10-16T03:05:24;2.80;;;2.60;;
74821;SDS011;63353;48.702;8.884;2022-10-16T03:07:50;3.97;;;2.80;;
74821;SDS011;63353;48.702;8.884;2022-10-16T03:10:15;3.73;;;2.80;;
74821;SDS011;63353;48.702;8.884;2022-10-16T03:12:41;2.67;;;2.47;;
74821;SDS011;63353;48.702;8.884;2022-10-16T03:15:07;3.17;;;2.73;;
74821;SDS011;63353;48.702;8.884;2022-10-16T03:17:33;3.83;;;2.80;;
74821;SDS011;63353;48.702;8.884;2022-10-16T03:19:58;3.27;;;2.90;;
74821;SDS011;63353;48.702;8.884;2022-10-16T03:24:52;3.30;;;2.57;;
74821;SDS011;63353;48.702;8.884;2022-10-16T03:27:17;2.90;;;2.60;;
74821;SDS011;63353;48.702;8.884;2022-10-16T03:29:43;3.10;;;2.80;;
74821;SDS011;63353;48.702;8.884;2022-10-16T03:32:09;3.10;;;2.80;;
74821;SDS011;63353;48.702;8.884;2022-10-16T03:34:34;3.40;;;2.83;;
74821;SDS011;63353;48.702;8.884;2022-10-16T03:37:00;3.00;;;2.63;;
74821;SDS011;63353;48.702;8.884;2022-10-16T03:39:25;4.23;;;2.80;;
74821;SDS011;63353;48.702;8.884;2022-10-16T03:41:52;2.97;;;2.77;;
74821;SDS011;63353;48.702;8.884;2022-10-16T03:44:17;3.27;;;2.60;;
74821;SDS011;63353;48.702;8.884;2022-10-16T03:46:43;3.67;;;2.87;;
74821;SDS011;63353;48.702;8.884;2022-10-16T03:49:09;4.33;;;3.00;;
74821;SDS011;63353;48.702;8.884;2022-10-16T03:51:34;2.97;;;2.77;;
74821;SDS011;63353;48.702;8.884;2022-10-16T03:54:00;3.90;;;3.03;;
74821;SDS011;63353;48.702;8.884;2022-10-16T03:56:26;3.13;;;2.90;;
74821;SDS011;63353;48.702;8.884;2022-10-16T03:58:51;3.07;;;2.70;;
74821;SDS011;63353;48.702;8.884;2022-10-16T04:01:17;3.10;;;2.80;;
74821;SDS011;63353;48.702;8.884;2022-10-16T04:03:42;3.63;;;2.53;;
74821;SDS011;63353;48.702;8.884;2022-10-16T04:06:08;3.13;;;2.93;;
74821;SDS011;63353;48.702;8.884;2022-10-16T04:08:34;2.97;;;2.67;;
74821;SDS011;63353;48.702;8.884;2022-10-16T04:11:01;2.93;;;2.73;;
74821;SDS011;63353;48.702;8.884;2022-10-16T04:13:27;3.00;;;2.80;;
74821;SDS011;63353;48.702;8.884;2022-10-16T04:15:53;3.40;;;3.10;;
74821;SDS011;63353;48.702;8.884;2022-10-16T04:18:18;4.00;;;2.97;;
74821;SDS011;63353;48.702;8.884;2022-10-16T04:20:44;3.30;;;3.00;;
74821;SDS011;63353;48.702;8.884;2022-10-16T04:23:10;4.17;;;2.80;;
74821;SDS011;63353;48.702;8.884;2022-10-16T04:25:35;3.27;;;2.93;;
74821;SDS011;63353;48.702;8.884;2022-10-16T04:28:01;3.20;;;2.90;;
74821;SDS011;63353;48.702;8.884;2022-10-16T04:30:27;4.07;;;3.00;;
74821;SDS011;63353;48.702;8.884;2022-10-16T04:32:52;4.27;;;2.60;;
74821;SDS011;63353;48.702;8.884;2022-10-16T04:35:18;2.73;;;2.53;;
74821;SDS011;63353;48.702;8.884;2022-10-16T04:37:45;2.90;;;2.70;;
74821;SDS011;63353;48.702;8.884;2022-10-16T04:40:11;3.03;;;2.53;;
74821;SDS011;63353;48.702;8.884;2022-10-16T04:42:38;2.80;;;2.67;;
74821;SDS011;63353;48.702;8.884;2022-10-16T04:45:04;3.37;;;2.90;;
74821;SDS011;63353;48.702;8.884;2022-10-16T04:47:30;3.97;;;3.10;;
74821;SDS011;63353;48.702;8.884;2022-10-16T04:49:56;3.20;;;3.00;;
74821;SDS011;63353;48.702;8.884;2022-10-16T04:52:22;3.13;;;2.50;;
74821;SDS011;63353;48.702;8.884;2022-10-16T04:54:50;3.37;;;2.47;;
74821;SDS011;63353;48.702;8.884;2022-10-16T04:57:15;5.43;;;2.97;;
74821;SDS011;63353;48.702;8.884;2022-10-16T04:59:42;2.80;;;2.60;;
74821;SDS011;63353;48.702;8.884;2022-10-16T05:02:08;4.53;;;2.90;;
74821;SDS011;63353;48.702;8.884;2022-10-16T05:04:33;4.10;;;2.90;;
74821;SDS011;63353;48.702;8.884;2022-10-16T05:06:59;3.00;;;2.70;;
74821;SDS011;63353;48.702;8.884;2022-10-16T05:09:25;2.80;;;2.60;;
74821;SDS011;63353;48.702;8.884;2022-10-16T05:11:50;3.63;;;3.00;;
74821;SDS011;63353;48.702;8.884;2022-10-16T05:14:16;3.10;;;2.80;;
74821;SDS011;63353;48.702;8.884;2022-10-16T05:16:42;4.83;;;3.17;;
74821;SDS011;63353;48.702;8.884;2022-10-16T05:19:07;4.03;;;3.20;;
74821;SDS011;63353;48.702;8.884;2022-10-16T05:21:33;4.47;;;3.10;;
74821;SDS011;63353;48.702;8.884;2022-10-16T05:23:59;3.20;;;2.90;;
74821;SDS011;63353;48.702;8.884;2022-10-16T05:26:24;3.50;;;3.20;;
74821;SDS011;63353;48.702;8.884;2022-10-16T05:28:50;3.27;;;2.97;;
74821;SDS011;63353;48.702;8.884;2022-10-16T05:31:15;4.30;;;2.90;;
74821;SDS011;63353;48.702;8.884;2022-10-16T05:33:41;3.43;;;2.90;;
74821;SDS011;63353;48.702;8.884;2022-10-16T05:36:09;3.40;;;3.13;;
74821;SDS011;63353;48.702;8.884;2022-10-16T05:38:35;5.53;;;3.30;;
74821;SDS011;63353;48.702;8.884;2022-10-16T05:41:02;3.40;;;3.10;;
74821;SDS011;63353;48.702;8.884;2022-10-16T05:43:29;3.30;;;3.10;;
74821;SDS011;63353;48.702;8.884;2022-10-16T05:48:25;3.13;;;2.87;;
74821;SDS011;63353;48.702;8.884;2022-10-16T05:51:01;4.50;;;2.90;;
74821;SDS011;63353;48.702;8.884;2022-10-16T05:53:32;3.47;;;3.17;;
74821;SDS011;63353;48.702;8.884;2022-10-16T05:55:59;4.57;;;3.40;;
74821;SDS011;63353;48.702;8.884;2022-10-16T05:58:28;5.30;;;3.30;;
74821;SDS011;63353;48.702;8.884;2022-10-16T06:03:22;3.40;;;2.97;;
74821;SDS011;63353;48.702;8.884;2022-10-16T06:05:48;5.50;;;3.10;;
74821;SDS011;63353;48.702;8.884;2022-10-16T06:08:14;5.80;;;3.23;;
74821;SDS011;63353;48.702;8.884;2022-10-16T06:10:40;3.40;;;3.10;;
74821;SDS011;63353;48.702;8.884;2022-10-16T06:13:05;3.67;;;3.37;;
74821;SDS011;63353;48.702;8.884;2022-10-16T06:15:31;3.40;;;2.73;;
74821;SDS011;63353;48.702;8.884;2022-10-16T06:17:56;3.80;;;3.10;;
74821;SDS011;63353;48.702;8.884;2022-10-16T06:20:22;3.43;;;3.13;;
74821;SDS011;63353;48.702;8.884;2022-10-16T06:22:48;3.57;;;3.23;;
74821;SDS011;63353;48.702;8.884;2022-10-16T06:25:13;3.50;;;3.13;;
74821;SDS011;63353;48.702;8.884;2022-10-16T06:27:39;3.93;;;3.10;;
74821;SDS011;63353;48.702;8.884;2022-10-16T06:30:06;3.20;;;2.90;;
74821;SDS011;63353;48.702;8.884;2022-10-16T06:32:32;5.20;;;3.00;;
74821;SDS011;63353;48.702;8.884;2022-10-16T06:34:57;5.30;;;3.47;;
74821;SDS011;63353;48.702;8.884;2022-10-16T06:37:23;3.50;;;3.20;;
74821;SDS011;63353;48.702;8.884;2022-10-16T06:39:49;3.13;;;2.93;;
74821;SDS011;63353;48.702;8.884;2022-10-16T06:42:17;3.73;;;2.87;;
74821;SDS011;63353;48.702;8.884;2022-10-16T06:44:43;3.50;;;2.73;;
74821;SDS011;63353;48.702;8.884;2022-10-16T06:47:09;3.00;;;2.80;;
74821;SDS011;63353;48.702;8.884;2022-10-16T06:49:35;4.37;;;3.10;;
74821;SDS011;63353;48.702;8.884;2022-10-16T06:52:00;2.77;;;2.57;;
74821;SDS011;63353;48.702;8.884;2022-10-16T06:54:26;3.47;;;2.93;;
74821;SDS011;63353;48.702;8.884;2022-10-16T06:56:52;4.00;;;3.07;;
74821;SDS011;63353;48.702;8.884;2022-10-16T06:59:19;3.33;;;3.00;;
74821;SDS011;63353;48.702;8.884;2022-10-16T07:01:45;4.93;;;3.00;;
74821;SDS011;63353;48.702;8.884;2022-10-16T07:04:11;3.07;;;2.83;;
74821;SDS011;63353;48.702;8.884;2022-10-16T07:06:37;3.47;;;3.17;;
74821;SDS011;63353;48.702;8.884;2022-10-16T07:09:04;4.50;;;3.10;;
74821;SDS011;63353;48.702;8.884;2022-10-16T07:11:31;4.60;;;3.00;;
74821;SDS011;63353;48.702;8.884;2022-10-16T07:13:57;3.10;;;2.80;;
74821;SDS011;63353;48.702;8.884;2022-10-16T07:16:24;3.87;;;2.80;;
74821;SDS011;63353;48.702;8.884;2022-10-16T07:18:53;4.87;;;2.80;;
74821;SDS011;63353;48.702;8.884;2022-10-16T07:21:27;3.33;;;2.90;;
74821;SDS011;63353;48.702;8.884;2022-10-16T07:23:56;3.33;;;2.70;;
74821;SDS011;63353;48.702;8.884;2022-10-16T07:26:23;2.90;;;2.70;;
74821;SDS011;63353;48.702;8.884;2022-10-16T07:28:50;2.83;;;2.67;;
74821;SDS011;63353;48.702;8.884;2022-10-16T07:31:16;2.83;;;2.53;;
74821;SDS011;63353;48.702;8.884;2022-10-16T07:33:43;3.73;;;3.43;;
74821;SDS011;63353;48.702;8.884;2022-10-16T07:36:10;3.13;;;2.83;;
74821;SDS011;63353;48.702;8.884;2022-10-16T07:38:37;2.93;;;2.63;;
74821;SDS011;63353;48.702;8.884;2022-10-16T07:41:04;3.70;;;2.67;;
74821;SDS011;63353;48.702;8.884;2022-10-16T07:43:32;3.53;;;2.80;;
74821;SDS011;63353;48.702;8.884;2022-10-16T07:45:58;5.50;;;2.80;;
74821;SDS011;63353;48.702;8.884;2022-10-16T07:48:26;3.40;;;2.73;;
74821;SDS011;63353;48.702;8.884;2022-10-16T07:50:56;2.93;;;2.73;;
74821;SDS011;63353;48.702;8.884;2022-10-16T07:53:27;2.90;;;2.70;;
74821;SDS011;63353;48.702;8.884;2022-10-16T07:55:57;2.93;;;2.40;;
74821;SDS011;63353;48.702;8.884;2022-10-16T07:58:27;2.90;;;2.70;;
74821;SDS011;63353;48.702;8.884;2022-10-16T08:00:54;3.73;;;2.90;;
74821;SDS011;63353;48.702;8.884;2022-10-16T08:03:20;3.80;;;2.57;;
74821;SDS011;63353;48.702;8.884;2022-10-16T08:05:46;3.57;;;2.90;;
74821;SDS011;63353;48.702;8.884;2022-10-16T08:08:15;3.13;;;2.93;;
74821;SDS011;63353;48.702;8.884;2022-10-16T08:10:42;3.37;;;2.80;;
74821;SDS011;63353;48.702;8.884;2022-10-16T08:13:08;3.40;;;3.10;;
74821;SDS011;63353;48.702;8.884;2022-10-16T08:15:34;6.83;;;3.37;;
74821;SDS011;63353;48.702;8.884;2022-10-16T08:18:00;3.60;;;3.30;;
74821;SDS011;63353;48.702;8.884;2022-10-16T08:20:27;3.60;;;3.40;;
74821;SDS011;63353;48.702;8.884;2022-10-16T08:22:54;3.70;;;3.40;;
74821;SDS011;63353;48.702;8.884;2022-10-16T08:25:20;3.87;;;2.87;;
74821;SDS011;63353;48.702;8.884;2022-10-16T08:27:46;3.20;;;2.93;;
74821;SDS011;63353;48.702;8.884;2022-10-16T08:30:12;3.00;;;2.80;;
74821;SDS011;63353;48.702;8.884;2022-10-16T08:32:38;3.90;;;3.50;;
74821;SDS011;63353;48.702;8.884;2022-10-16T08:35:06;4.13;;;3.60;;
74821;SDS011;63353;48.702;8.884;2022-10-16T08:37:32;4.10;;;3.67;;
74821;SDS011;63353;48.702;8.884;2022-10-16T08:39:58;5.40;;;4.57;;
74821;SDS011;63353;48.702;8.884;2022-10-16T08:50:44;3.67;;;3.20;;
74821;SDS011;63353;48.702;8.884;2022-10-16T08:53:31;3.00;;;2.80;;
74821;SDS011;63353;48.702;8.884;2022-10-16T08:56:06;5.23;;;4.73;;
74821;SDS011;63353;48.702;8.884;2022-10-16T08:58:32;3.73;;;3.10;;
74821;SDS011;63353;48.702;8.884;2022-10-16T09:00:59;5.40;;;4.97;;
74821;SDS011;63353;48.702;8.884;2022-10-16T09:03:37;4.87;;;3.13;;
74821;SDS011;63353;48.702;8.884;2022-10-16T09:19:53;3.83;;;2.60;;
74821;SDS011;63353;48.702;8.884;2022-10-16T09:22:28;4.27;;;2.70;;
74821;SDS011;63353;48.702;8.884;2022-10-16T09:24:59;3.40;;;2.70;;
74821;SDS011;63353;48.702;8.884;2022-10-16T09:27:30;2.90;;;2.37;;
74821;SDS011;63353;48.702;8.884;2022-10-16T09:29:56;3.73;;;2.90;;
74821;SDS011;63353;48.702;8.884;2022-10-16T09:32:21;3.07;;;2.70;;
74821;SDS011;63353;48.702;8.884;2022-10-16T09:34:49;3.10;;;2.90;;
74821;SDS011;63353;48.702;8.884;2022-10-16T09:37:18;2.90;;;2.70;;
74821;SDS011;63353;48.702;8.884;2022-10-16T09:39:52;3.17;;;2.83;;
74821;SDS011;63353;48.702;8.884;2022-10-16T09:42:27;4.07;;;2.60;;
74821;SDS011;63353;48.702;8.884;2022-10-16T09:44:57;3.10;;;2.40;;
74821;SDS011;63353;48.702;8.884;2022-10-16T09:47:24;3.43;;;2.50;;
74821;SDS011;63353;48.702;8.884;2022-10-16T09:49:56;4.27;;;2.87;;
74821;SDS011;63353;48.702;8.884;2022-10-16T09:52:26;2.97;;;2.50;;
74821;SDS011;63353;48.702;8.884;2022-10-16T09:55:12;2.50;;;2.30;;
74821;SDS011;63353;48.702;8.884;2022-10-16T09:57:52;2.50;;;2.30;;
74821;SDS011;63353;48.702;8.884;2022-10-16T10:00:19;2.60;;;2.40;;
74821;SDS011;63353;48.702;8.884;2022-10-16T10:02:46;4.97;;;2.87;;
74821;SDS011;63353;48.702;8.884;2022-10-16T10:05:23;2.43;;;2.23;;
74821;SDS011;63353;48.702;8.884;2022-10-16T10:07:55;2.50;;;2.30;;
74821;SDS011;63353;48.702;8.884;2022-10-16T10:10:28;2.80;;;2.27;;
74821;SDS011;63353;48.702;8.884;2022-10-16T10:12:56;2.43;;;2.23;;
74821;SDS011;63353;48.702;8.884;2022-10-16T10:15:22;2.47;;;2.33;;
74821;SDS011;63353;48.702;8.884;2022-10-16T10:17:58;3.77;;;2.50;;
74821;SDS011;63353;48.702;8.884;2022-10-16T10:20:28;2.70;;;2.20;;
74821;SDS011;63353;48.702;8.884;2022-10-16T10:22:57;3.73;;;2.23;;
74821;SDS011;63353;48.702;8.884;2022-10-16T10:30:43;2.90;;;2.63;;
74821;SDS011;63353;48.702;8.884;2022-10-16T10:33:41;5.07;;;2.60;;
74821;SDS011;63353;48.702;8.884;2022-10-16T10:50:54;3.40;;;2.50;;
74821;SDS011;63353;48.702;8.884;2022-10-16T10:53:42;2.87;;;2.67;;
74821;SDS011;63353;48.702;8.884;2022-10-16T11:10:22;2.63;;;2.30;;
74821;SDS011;63353;48.702;8.884;2022-10-16T11:12:57;2.40;;;2.20;;
74821;SDS011;63353;48.702;8.884;2022-10-16T11:15:31;2.53;;;2.30;;
74821;SDS011;63353;48.702;8.884;2022-10-16T11:18:04;2.27;;;2.17;;
74821;SDS011;63353;48.702;8.884;2022-10-16T11:20:34;2.20;;;2.00;;
74821;SDS011;63353;48.702;8.884;2022-10-16T11:25:35;5.53;;;2.40;;
74821;SDS011;63353;48.702;8.884;2022-10-16T11:33:28;3.10;;;2.37;;
74821;SDS011;63353;48.702;8.884;2022-10-16T11:36:03;3.40;;;2.20;;
74821;SDS011;63353;48.702;8.884;2022-10-16T11:41:35;2.60;;;2.40;;
74821;SDS011;63353;48.702;8.884;2022-10-16T11:44:18;2.20;;;2.10;;
74821;SDS011;63353;48.702;8.884;2022-10-16T11:49:30;2.50;;;2.30;;
74821;SDS011;63353;48.702;8.884;2022-10-16T11:55:22;3.50;;;2.30;;
74821;SDS011;63353;48.702;8.884;2022-10-16T11:57:35;2.60;;;2.40;;
74821;SDS011;63353;48.702;8.884;2022-10-16T12:08:16;2.30;;;2.00;;
74821;SDS011;63353;48.702;8.884;2022-10-16T12:10:43;3.00;;;2.00;;
74821;SDS011;63353;48.702;8.884;2022-10-16T12:18:37;2.37;;;2.20;;
74821;SDS011;63353;48.702;8.884;2022-10-16T12:21:11;3.63;;;2.40;;
74821;SDS011;63353;48.702;8.884;2022-10-16T12:23:47;2.67;;;2.47;;
74821;SDS011;63353;48.702;8.884;2022-10-16T12:26:13;2.50;;;2.40;;
74821;SDS011;63353;48.702;8.884;2022-10-16T12:28:39;2.80;;;2.60;;
74821;SDS011;63353;48.702;8.884;2022-10-16T12:31:06;2.90;;;2.70;;
74821;SDS011;63353;48.702;8.884;2022-10-16T12:33:35;2.90;;;2.70;;
74821;SDS011;63353;48.702;8.884;2022-10-16T12:36:06;2.80;;;2.60;;
74821;SDS011;63353;48.702;8.884;2022-10-16T12:38:46;3.00;;;2.67;;
74821;SDS011;63353;48.702;8.884;2022-10-16T12:41:25;2.70;;;2.60;;
74821;SDS011;63353;48.702;8.884;2022-10-16T12:43:55;2.80;;;2.57;;
74821;SDS011;63353;48.702;8.884;2022-10-16T12:46:40;3.03;;;2.80;;
74821;SDS011;63353;48.702;8.884;2022-10-16T12:51:37;3.10;;;2.90;;
74821;SDS011;63353;48.702;8.884;2022-10-16T13:24:28;3.33;;;3.00;;
74821;SDS011;63353;48.702;8.884;2022-10-16T13:29:53;3.30;;;3.00;;
74821;SDS011;63353;48.702;8.884;2022-10-16T13:32:35;3.33;;;2.70;;
74821;SDS011;63353;48.702;8.884;2022-10-16T13:35:01;4.70;;;2.93;;
74821;SDS011;63353;48.702;8.884;2022-10-16T13:37:29;3.10;;;2.80;;
74821;SDS011;63353;48.702;8.884;2022-10-16T13:42:52;3.67;;;3.00;;
74821;SDS011;63353;48.702;8.884;2022-10-16T13:45:19;3.10;;;2.90;;
74821;SDS011;63353;48.702;8.884;2022-10-16T13:47:46;3.10;;;2.90;;
74821;SDS011;63353;48.702;8.884;2022-10-16T13:50:13;3.37;;;3.00;;
74821;SDS011;63353;48.702;8.884;2022-10-16T13:52:41;3.40;;;2.63;;
74821;SDS011;63353;48.702;8.884;2022-10-16T13:55:11;3.30;;;3.00;;
74821;SDS011;63353;48.702;8.884;2022-10-16T13:57:41;3.43;;;3.20;;
74821;SDS011;63353;48.702;8.884;2022-10-16T14:00:21;3.73;;;3.20;;
74821;SDS011;63353;48.702;8.884;2022-10-16T14:03:01;3.60;;;3.10;;
74821;SDS011;63353;48.702;8.884;2022-10-16T14:05:36;3.80;;;3.50;;
74821;SDS011;63353;48.702;8.884;2022-10-16T14:08:13;4.60;;;3.80;;
74821;SDS011;63353;48.702;8.884;2022-10-16T14:10:38;4.43;;;3.40;;
74821;SDS011;63353;48.702;8.884;2022-10-16T14:13:05;3.87;;;3.50;;
74821;SDS011;63353;48.702;8.884;2022-10-16T14:15:35;3.90;;;3.60;;
74821;SDS011;63353;48.702;8.884;2022-10-16T14:18:01;4.27;;;3.30;;
74821;SDS011;63353;48.702;8.884;2022-10-16T14:20:32;3.80;;;3.40;;
74821;SDS011;63353;48.702;8.884;2022-10-16T14:23:03;3.73;;;3.33;;
74821;SDS011;63353;48.702;8.884;2022-10-16T14:25:51;3.60;;;3.40;;
74821;SDS011;63353;48.702;8.884;2022-10-16T14:28:20;4.43;;;3.37;;
74821;SDS011;63353;48.702;8.884;2022-10-16T14:30:57;3.57;;;3.27;;
74821;SDS011;63353;48.702;8.884;2022-10-16T14:33:31;5.30;;;3.73;;
74821;SDS011;63353;48.702;8.884;2022-10-16T14:38:28;3.57;;;3.27;;
74821;SDS011;63353;48.702;8.884;2022-10-16T14:40:54;3.63;;;3.43;;
74821;SDS011;63353;48.702;8.884;2022-10-16T14:43:42;4.17;;;3.77;;
74821;SDS011;63353;48.702;8.884;2022-10-16T14:46:12;5.10;;;3.10;;
74821;SDS011;63353;48.702;8.884;2022-10-16T14:48:43;3.63;;;3.43;;
74821;SDS011;63353;48.702;8.884;2022-10-16T14:51:15;3.50;;;3.20;;
74821;SDS011;63353;48.702;8.884;2022-10-16T14:53:41;3.60;;;3.30;;
74821;SDS011;63353;48.702;8.884;2022-10-16T14:56:17;4.93;;;3.30;;
74821;SDS011;63353;48.702;8.884;2022-10-16T14:58:46;4.43;;;3.67;;
74821;SDS011;63353;48.702;8.884;2022-10-16T15:01:11;3.47;;;3.27;;
74821;SDS011;63353;48.702;8.884;2022-10-16T15:03:38;3.87;;;3.30;;
74821;SDS011;63353;48.702;8.884;2022-10-16T15:06:04;3.80;;;3.50;;
74821;SDS011;63353;48.702;8.884;2022-10-16T15:08:39;3.73;;;3.33;;
74821;SDS011;63353;48.702;8.884;2022-10-16T15:11:08;4.40;;;3.43;;
74821;SDS011;63353;48.702;8.884;2022-10-16T15:13:39;3.80;;;3.50;;
74821;SDS011;63353;48.702;8.884;2022-10-16T15:16:07;3.73;;;3.43;;
74821;SDS011;63353;48.702;8.884;2022-10-16T15:18:37;5.07;;;3.57;;
74821;SDS011;63353;48.702;8.884;2022-10-16T15:21:03;3.73;;;3.43;;
74821;SDS011;63353;48.702;8.884;2022-10-16T15:23:29;5.33;;;3.80;;
74821;SDS011;63353;48.702;8.884;2022-10-16T15:25:55;3.83;;;3.53;;
74821;SDS011;63353;48.702;8.884;2022-10-16T15:28:21;3.93;;;3.60;;
74821;SDS011;63353;48.702;8.884;2022-10-16T15:30:49;4.33;;;3.87;;
74821;SDS011;63353;48.702;8.884;2022-10-16T15:33:19;4.47;;;4.07;;
74821;SDS011;63353;48.702;8.884;2022-10-16T15:35:51;6.00;;;4.50;;
74821;SDS011;63353;48.702;8.884;2022-10-16T15:38:17;5.83;;;4.87;;
74821;SDS011;63353;48.702;8.884;2022-10-16T15:40:47;7.90;;;4.80;;
74821;SDS011;63353;48.702;8.884;2022-10-16T15:43:13;5.23;;;4.50;;
74821;SDS011;63353;48.702;8.884;2022-10-16T15:45:39;6.33;;;3.87;;
74821;SDS011;63353;48.702;8.884;2022-10-16T15:48:05;5.70;;;3.90;;
74821;SDS011;63353;48.702;8.884;2022-10-16T15:50:31;7.33;;;3.83;;
74821;SDS011;63353;48.702;8.884;2022-10-16T15:52:57;6.17;;;3.70;;
74821;SDS011;63353;48.702;8.884;2022-10-16T15:55:23;7.77;;;3.70;;
74821;SDS011;63353;48.702;8.884;2022-10-16T15:57:49;5.10;;;3.70;;
74821;SDS011;63353;48.702;8.884;2022-10-16T16:00:15;4.40;;;4.00;;
74821;SDS011;63353;48.702;8.884;2022-10-16T16:02:43;4.37;;;3.80;;
74821;SDS011;63353;48.702;8.884;2022-10-16T16:05:16;4.00;;;3.63;;
74821;SDS011;63353;48.702;8.884;2022-10-16T16:07:42;4.47;;;4.07;;
74821;SDS011;63353;48.702;8.884;2022-10-16T16:10:09;5.63;;;3.80;;
74821;SDS011;63353;48.702;8.884;2022-10-16T16:12:35;5.00;;;4.00;;
74821;SDS011;63353;48.702;8.884;2022-10-16T16:15:02;4.87;;;3.73;;
74821;SDS011;63353;48.702;8.884;2022-10-16T16:17:30;4.77;;;4.37;;
74821;SDS011;63353;48.702;8.884;2022-10-16T16:19:56;6.23;;;3.73;;
74821;SDS011;63353;48.702;8.884;2022-10-16T16:22:21;4.90;;;4.50;;
74821;SDS011;63353;48.702;8.884;2022-10-16T16:24:47;5.70;;;4.60;;
74821;SDS011;63353;48.702;8.884;2022-10-16T16:27:13;4.33;;;4.00;;
74821;SDS011;63353;48.702;8.884;2022-10-16T16:29:38;6.40;;;5.13;;
74821;SDS011;63353;48.702;8.884;2022-10-16T16:32:04;6.50;;;5.80;;
74821;SDS011;63353;48.702;8.884;2022-10-16T16:34:30;8.30;;;6.97;;
74821;SDS011;63353;48.702;8.884;2022-10-16T16:36:55;6.27;;;5.67;;
74821;SDS011;63353;48.702;8.884;2022-10-16T16:39:22;8.97;;;8.07;;
74821;SDS011;63353;48.702;8.884;2022-10-16T16:41:48;10.60;;;8.67;;
74821;SDS011;63353;48.702;8.884;2022-10-16T16:44:14;9.50;;;8.60;;
74821;SDS011;63353;48.702;8.884;2022-10-16T16:46:40;8.83;;;6.80;;
74821;SDS011;63353;48.702;8.884;2022-10-16T16:49:08;7.17;;;5.83;;
74821;SDS011;63353;48.702;8.884;2022-10-16T16:51:36;7.50;;;6.80;;
74821;SDS011;63353;48.702;8.884;2022-10-16T16:54:02;6.53;;;5.93;;
74821;SDS011;63353;48.702;8.884;2022-10-16T16:56:28;4.90;;;3.93;;
74821;SDS011;63353;48.702;8.884;2022-10-16T16:58:54;5.37;;;4.60;;
74821;SDS011;63353;48.702;8.884;2022-10-16T17:01:22;6.07;;;4.60;;
74821;SDS011;63353;48.702;8.884;2022-10-16T17:03:49;5.37;;;4.30;;
74821;SDS011;63353;48.702;8.884;2022-10-16T17:06:17;5.43;;;4.30;;
74821;SDS011;63353;48.702;8.884;2022-10-16T17:08:43;5.97;;;4.70;;
74821;SDS011;63353;48.702;8.884;2022-10-16T17:11:17;6.70;;;5.13;;
74821;SDS011;63353;48.702;8.884;2022-10-16T17:13:44;5.33;;;4.83;;
74821;SDS011;63353;48.702;8.884;2022-10-16T17:16:10;9.60;;;4.93;;
74821;SDS011;63353;48.702;8.884;2022-10-16T17:18:36;6.97;;;4.60;;
74821;SDS011;63353;48.702;8.884;2022-10-16T17:21:03;6.77;;;4.90;;
74821;SDS011;63353;48.702;8.884;2022-10-16T17:23:31;7.93;;;4.70;;
74821;SDS011;63353;48.702;8.884;2022-10-16T17:25:59;7.77;;;5.13;;
74821;SDS011;63353;48.702;8.884;2022-10-16T17:28:37;6.07;;;4.43;;